Time;durP1;ratioP1;P1;durP2;ratioP2;P2;SDS_P1;SDS_P2;PMS_P1;PMS_P2;Temp;Humidity;BMP_temperature;BMP_pressure;BME280_temperature;BME280_humidity;BME280_pressure;Samples;Min_cycle;Max_cycle;Signal;HPM_P1;HPM_P2
2021/07/19 00:00:57;;;;;;;3.78;3.47;;;24.90;77.80;;;;;;5011146;28;20551;-61
2021/07/19 00:03:24;;;;;;;4.70;4.28;;;24.90;77.80;;;;;;5012113;28;20585;-61
2021/07/19 00:05:50;;;;;;;3.60;3.30;;;24.90;77.80;;;;;;5010854;28;20580;-60
2021/07/19 00:08:17;;;;;;;4.10;3.78;;;24.90;77.90;;;;;;5011186;28;20203;-61
2021/07/19 00:10:43;;;;;;;4.00;3.63;;;24.90;77.70;;;;;;5011719;28;20295;-61
2021/07/19 00:13:09;;;;;;;3.80;3.50;;;24.90;77.50;;;;;;5013317;28;20203;-61
2021/07/19 00:15:36;;;;;;;4.13;3.72;;;24.90;77.60;;;;;;5011382;28;20199;-61
2021/07/19 00:18:02;;;;;;;3.47;3.17;;;24.90;77.60;;;;;;5012848;28;20207;-61
2021/07/19 00:20:29;;;;;;;3.83;3.50;;;24.90;77.70;;;;;;5010924;28;20294;-60
2021/07/19 00:22:55;;;;;;;4.00;3.55;;;24.90;77.70;;;;;;5011960;28;20234;-61
2021/07/19 00:25:22;;;;;;;4.18;3.83;;;24.80;77.50;;;;;;5011402;28;20202;-61
2021/07/19 00:27:48;;;;;;;3.63;3.33;;;24.80;77.60;;;;;;5012716;28;20202;-61
2021/07/19 00:30:15;;;;;;;4.20;3.78;;;24.80;77.50;;;;;;5010502;28;20217;-61
2021/07/19 00:32:42;;;;;;;3.70;3.40;;;24.90;77.50;;;;;;5012001;28;20234;-60
2021/07/19 00:35:08;;;;;;;3.95;3.65;;;24.80;77.50;;;;;;5011235;28;20233;-61
2021/07/19 00:37:34;;;;;;;3.95;3.65;;;24.80;77.50;;;;;;5011103;28;20205;-61
2021/07/19 00:40:01;;;;;;;3.33;3.03;;;24.80;77.60;;;;;;5011154;28;20219;-61
2021/07/19 00:42:27;;;;;;;4.40;4.00;;;24.90;77.50;;;;;;5010659;28;20231;-61
2021/07/19 00:44:54;;;;;;;3.75;3.45;;;24.80;77.50;;;;;;5011752;28;20207;-61
2021/07/19 00:47:20;;;;;;;3.92;3.63;;;24.80;77.50;;;;;;5011768;28;20215;-61
2021/07/19 00:49:47;;;;;;;3.80;3.50;;;24.80;77.60;;;;;;5011313;28;20211;-60
2021/07/19 00:52:13;;;;;;;3.88;3.30;;;24.90;77.60;;;;;;5011620;28;20233;-61
2021/07/19 00:54:39;;;;;;;3.70;3.40;;;24.80;77.50;;;;;;4999312;28;20206;-61
2021/07/19 00:57:06;;;;;;;3.60;3.30;;;24.90;77.50;;;;;;5011842;28;20206;-61
2021/07/19 00:59:32;;;;;;;3.72;3.42;;;24.80;77.50;;;;;;5011331;28;20210;-61
2021/07/19 01:01:59;;;;;;;4.18;3.83;;;24.80;77.50;;;;;;5010535;28;20234;-60
2021/07/19 01:04:25;;;;;;;4.00;3.70;;;24.80;78.30;;;;;;5010321;28;20199;-61
2021/07/19 01:06:52;;;;;;;4.00;3.70;;;24.80;77.50;;;;;;5012086;28;20209;-61
2021/07/19 01:09:18;;;;;;;4.10;3.80;;;24.80;77.50;;;;;;5010709;28;20207;-61
2021/07/19 01:11:45;;;;;;;3.63;3.33;;;24.90;77.60;;;;;;5010754;28;20302;-61
2021/07/19 01:14:11;;;;;;;3.80;3.50;;;24.80;77.50;;;;;;5011764;28;20202;-61
2021/07/19 01:16:37;;;;;;;4.55;4.15;;;24.80;77.50;;;;;;5010836;28;20191;-61
2021/07/19 01:19:04;;;;;;;3.35;3.15;;;24.80;77.50;;;;;;5011289;28;20206;-61
2021/07/19 01:21:30;;;;;;;3.97;3.67;;;24.80;77.40;;;;;;5010632;28;20225;-61
2021/07/19 01:23:57;;;;;;;3.45;3.15;;;24.80;77.50;;;;;;4998881;28;20230;-61
2021/07/19 01:26:23;;;;;;;3.95;3.65;;;24.90;77.50;;;;;;5001167;28;20199;-61
2021/07/19 01:28:50;;;;;;;3.67;3.38;;;24.80;77.40;;;;;;5009906;28;20203;-61
2021/07/19 01:31:16;;;;;;;3.67;3.35;;;24.80;77.30;;;;;;5011493;28;20226;-62
2021/07/19 01:33:42;;;;;;;3.50;3.20;;;24.80;77.20;;;;;;5010469;28;20327;-61
2021/07/19 01:36:09;;;;;;;3.80;3.30;;;24.80;77.40;;;;;;5010381;28;20203;-61
2021/07/19 01:38:35;;;;;;;3.47;3.17;;;24.80;77.40;;;;;;5009513;28;20213;-61
2021/07/19 01:41:02;;;;;;;3.58;3.28;;;24.80;77.40;;;;;;5011303;28;20223;-61
2021/07/19 01:43:28;;;;;;;3.70;3.40;;;24.90;77.50;;;;;;5008256;28;20231;-61
2021/07/19 01:45:55;;;;;;;3.70;3.40;;;24.80;77.30;;;;;;5011518;28;20302;-61
2021/07/19 01:48:21;;;;;;;4.28;3.88;;;24.80;77.30;;;;;;5010553;28;20199;-61
2021/07/19 01:50:48;;;;;;;3.70;3.40;;;24.80;77.30;;;;;;5011233;28;20243;-61
2021/07/19 01:53:14;;;;;;;3.90;3.60;;;24.80;77.30;;;;;;5009075;28;20220;-61
2021/07/19 01:55:40;;;;;;;3.78;3.47;;;24.90;77.40;;;;;;5010845;28;20207;-61
2021/07/19 01:58:07;;;;;;;3.90;3.60;;;24.80;77.20;;;;;;5010210;28;20203;-60
2021/07/19 02:00:33;;;;;;;3.60;3.30;;;24.80;77.20;;;;;;5007754;28;20241;-61
2021/07/19 02:03:00;;;;;;;3.22;2.92;;;24.80;77.20;;;;;;5009399;28;20235;-61
2021/07/19 02:05:26;;;;;;;3.50;3.20;;;24.80;77.20;;;;;;5009808;28;20203;-61
2021/07/19 02:07:53;;;;;;;3.70;3.40;;;24.90;77.30;;;;;;5009855;28;20518;-61
2021/07/19 02:10:19;;;;;;;3.72;3.40;;;24.80;77.10;;;;;;5009848;28;20286;-61
2021/07/19 02:12:45;;;;;;;3.70;3.40;;;24.80;77.10;;;;;;5009715;28;20225;-62
2021/07/19 02:15:12;;;;;;;3.60;3.30;;;24.80;77.10;;;;;;5009480;28;20247;-61
2021/07/19 02:17:38;;;;;;;3.72;3.30;;;24.80;77.10;;;;;;5010614;28;20301;-61
2021/07/19 02:20:05;;;;;;;3.42;3.17;;;24.80;77.20;;;;;;5009660;28;20205;-61
2021/07/19 02:22:31;;;;;;;3.15;2.95;;;24.80;77.10;;;;;;5009592;28;20222;-61
2021/07/19 02:24:58;;;;;;;3.50;3.20;;;24.80;76.90;;;;;;5010718;28;20207;-61
2021/07/19 02:27:24;;;;;;;3.80;3.50;;;24.80;77.00;;;;;;5008514;28;20194;-60
2021/07/19 02:29:51;;;;;;;3.92;3.53;;;24.80;77.00;;;;;;5009567;28;20206;-61
2021/07/19 02:32:17;;;;;;;3.50;3.20;;;24.80;76.80;;;;;;5009846;28;20235;-60
2021/07/19 02:34:44;;;;;;;3.53;3.22;;;24.80;77.00;;;;;;5008724;28;20201;-60
2021/07/19 02:37:10;;;;;;;4.03;3.25;;;24.80;77.00;;;;;;5007433;28;20203;-60
2021/07/19 02:39:37;;;;;;;4.25;3.83;;;24.80;77.00;;;;;;5009728;28;20205;-61
2021/07/19 02:42:04;;;;;;;3.97;3.50;;;24.80;77.10;;;;;;5007076;28;20230;-60
2021/07/19 02:44:30;;;;;;;3.72;3.42;;;24.80;77.20;;;;;;5009401;28;20204;-60
2021/07/19 02:46:57;;;;;;;3.35;3.05;;;24.80;77.20;;;;;;5010802;28;20217;-60
2021/07/19 02:49:23;;;;;;;3.70;3.40;;;24.80;77.10;;;;;;5008523;28;20204;-60
2021/07/19 02:51:50;;;;;;;3.65;3.35;;;24.80;77.20;;;;;;5009530;28;20274;-60
2021/07/19 02:54:16;;;;;;;3.78;3.40;;;24.80;77.10;;;;;;5003292;28;20214;-60
2021/07/19 02:56:42;;;;;;;3.42;3.13;;;24.80;77.00;;;;;;5008002;28;20203;-60
2021/07/19 02:59:09;;;;;;;3.95;3.60;;;24.80;77.00;;;;;;5010356;28;20199;-60
2021/07/19 03:01:35;;;;;;;3.80;3.35;;;24.90;77.20;;;;;;5009458;28;20225;-60
2021/07/19 03:04:02;;;;;;;3.63;3.33;;;24.80;77.10;;;;;;5008776;28;20231;-60
2021/07/19 03:06:28;;;;;;;3.50;3.20;;;24.80;77.00;;;;;;5010752;28;20200;-60
2021/07/19 03:08:55;;;;;;;3.70;3.40;;;24.80;77.10;;;;;;5014181;28;20203;-59
2021/07/19 03:11:21;;;;;;;3.80;3.50;;;24.80;77.00;;;;;;5012688;28;20314;-60
2021/07/19 03:13:48;;;;;;;3.40;3.10;;;24.80;77.00;;;;;;5012708;28;20213;-60
2021/07/19 03:16:14;;;;;;;3.45;3.17;;;24.80;77.00;;;;;;5012745;28;20664;-60
2021/07/19 03:18:41;;;;;;;3.53;3.22;;;24.80;76.90;;;;;;5013830;28;20221;-60
2021/07/19 03:21:07;;;;;;;3.47;3.17;;;24.80;77.00;;;;;;5012629;28;20657;-60
2021/07/19 03:23:33;;;;;;;3.60;3.28;;;24.80;77.00;;;;;;5013039;28;20721;-60
2021/07/19 03:26:00;;;;;;;3.75;3.45;;;24.80;77.00;;;;;;5013520;28;20252;-60
2021/07/19 03:28:27;;;;;;;3.65;3.35;;;24.80;77.00;;;;;;5011242;28;20290;-61
2021/07/19 03:30:53;;;;;;;3.30;3.00;;;24.80;76.90;;;;;;5006365;28;20230;-60
2021/07/19 03:33:20;;;;;;;3.40;3.10;;;24.80;76.90;;;;;;5012594;28;20286;-60
2021/07/19 03:35:46;;;;;;;3.15;2.90;;;24.80;76.90;;;;;;5014290;28;20211;-60
2021/07/19 03:38:13;;;;;;;4.28;3.85;;;24.80;76.80;;;;;;5010829;28;20681;-61
2021/07/19 03:40:39;;;;;;;3.42;3.10;;;24.80;76.80;;;;;;5013067;28;20706;-60
2021/07/19 03:43:06;;;;;;;3.55;3.25;;;24.80;76.90;;;;;;5011186;28;20226;-60
2021/07/19 03:45:32;;;;;;;3.90;3.33;;;24.80;76.80;;;;;;5013670;28;20214;-60
2021/07/19 03:48:00;;;;;;;3.45;3.15;;;24.80;76.80;;;;;;5012557;28;20223;-60
2021/07/19 03:50:26;;;;;;;3.60;3.30;;;24.80;76.80;;;;;;5012985;28;20226;-60
2021/07/19 03:52:53;;;;;;;3.47;3.17;;;24.80;76.80;;;;;;5011797;28;20593;-59
2021/07/19 03:55:19;;;;;;;4.03;3.65;;;24.80;76.80;;;;;;5012671;28;20620;-60
2021/07/19 03:57:46;;;;;;;3.60;3.30;;;24.80;76.70;;;;;;5012226;28;20681;-60
2021/07/19 04:00:12;;;;;;;3.50;3.20;;;24.80;76.80;;;;;;5011517;28;20211;-60
2021/07/19 04:02:39;;;;;;;3.03;2.83;;;24.80;76.80;;;;;;5010144;28;20234;-60
2021/07/19 04:05:06;;;;;;;3.10;2.90;;;24.80;76.80;;;;;;5011447;28;20207;-60
2021/07/19 04:07:36;;;;;;;3.50;3.20;;;24.80;76.80;;;;;;5012461;28;20211;-59
2021/07/19 04:10:02;;;;;;;4.15;3.78;;;24.80;76.70;;;;;;5011795;28;20234;-60
2021/07/19 04:12:28;;;;;;;3.63;3.33;;;24.80;76.70;;;;;;5012674;28;20215;-60
2021/07/19 04:14:55;;;;;;;3.42;3.13;;;24.80;76.70;;;;;;5012092;28;20222;-60
2021/07/19 04:17:21;;;;;;;3.35;3.05;;;24.80;76.80;;;;;;5012217;28;20544;-60
2021/07/19 04:19:48;;;;;;;3.80;3.50;;;24.80;76.80;;;;;;5011108;28;20489;-59
2021/07/19 04:22:14;;;;;;;3.60;3.25;;;24.80;76.80;;;;;;5012967;28;20906;-59
2021/07/19 04:24:41;;;;;;;3.90;3.30;;;24.80;76.80;;;;;;5011762;28;20725;-59
2021/07/19 04:27:08;;;;;;;3.17;2.88;;;24.80;76.80;;;;;;5012295;28;20571;-60
2021/07/19 04:29:34;;;;;;;3.25;2.95;;;24.80;76.90;;;;;;5011735;28;20300;-60
2021/07/19 04:32:00;;;;;;;3.20;2.90;;;24.80;76.90;;;;;;5011986;28;20226;-60
2021/07/19 04:34:27;;;;;;;3.08;2.80;;;24.80;76.90;;;;;;5010003;28;20209;-59
2021/07/19 04:36:53;;;;;;;3.30;3.03;;;24.80;76.80;;;;;;5011051;28;20215;-59
2021/07/19 04:39:20;;;;;;;3.33;3.03;;;24.80;76.90;;;;;;5011987;28;20207;-60
2021/07/19 04:41:46;;;;;;;3.00;2.80;;;24.80;76.90;;;;;;5012220;28;20231;-60
2021/07/19 04:44:13;;;;;;;3.60;3.33;;;24.80;76.90;;;;;;5011666;28;20233;-60
2021/07/19 04:46:39;;;;;;;3.67;3.38;;;24.80;76.90;;;;;;5011456;28;20207;-60
2021/07/19 04:49:05;;;;;;;3.72;3.40;;;24.80;76.90;;;;;;5009424;28;20203;-61
2021/07/19 04:51:32;;;;;;;3.42;3.13;;;24.80;76.90;;;;;;5012539;28;20223;-60
2021/07/19 04:53:58;;;;;;;3.45;3.05;;;24.80;76.80;;;;;;5010419;28;20214;-60
2021/07/19 04:56:25;;;;;;;4.47;3.40;;;24.80;76.80;;;;;;5010233;28;20206;-60
2021/07/19 04:58:51;;;;;;;3.22;2.92;;;24.80;76.70;;;;;;5011801;28;20199;-60
2021/07/19 05:01:18;;;;;;;3.63;3.33;;;24.80;76.80;;;;;;5011236;28;20219;-60
2021/07/19 05:03:44;;;;;;;4.00;3.15;;;24.80;76.80;;;;;;5011731;28;20281;-60
2021/07/19 05:06:10;;;;;;;3.40;3.10;;;24.80;76.80;;;;;;5009001;28;20205;-60
2021/07/19 05:08:37;;;;;;;3.60;3.30;;;24.80;76.70;;;;;;5010484;28;20238;-60
2021/07/19 05:11:03;;;;;;;3.75;3.45;;;24.80;76.70;;;;;;5011750;28;20223;-60
2021/07/19 05:13:31;;;;;;;3.08;2.78;;;24.80;76.60;;;;;;5010685;28;20657;-60
2021/07/19 05:15:58;;;;;;;3.35;3.08;;;24.80;76.60;;;;;;5004473;28;20207;-60
2021/07/19 05:18:24;;;;;;;3.38;3.00;;;24.80;76.60;;;;;;5009657;28;20199;-60
2021/07/19 05:20:51;;;;;;;3.00;2.80;;;24.80;76.60;;;;;;5012173;28;20218;-60
2021/07/19 05:23:17;;;;;;;3.00;2.78;;;24.80;76.60;;;;;;5010894;28;20259;-61
2021/07/19 05:25:45;;;;;;;3.20;3.00;;;24.80;76.50;;;;;;5010444;28;20281;-60
2021/07/19 05:28:11;;;;;;;3.50;3.20;;;24.80;76.50;;;;;;5010833;28;20214;-60
2021/07/19 05:30:38;;;;;;;3.47;3.17;;;24.80;76.50;;;;;;5010887;28;20237;-60
2021/07/19 05:33:04;;;;;;;3.38;2.85;;;24.80;76.50;;;;;;5011395;28;20326;-61
2021/07/19 05:35:30;;;;;;;3.03;2.75;;;24.80;76.50;;;;;;5010457;28;20201;-60
2021/07/19 05:37:57;;;;;;;3.15;2.92;;;24.80;76.50;;;;;;5010100;28;20210;-61
2021/07/19 05:40:23;;;;;;;2.80;2.60;;;24.80;76.50;;;;;;5009884;28;20227;-60
2021/07/19 05:42:50;;;;;;;3.47;3.20;;;24.80;76.50;;;;;;5011065;28;20209;-60
2021/07/19 05:45:16;;;;;;;3.50;3.20;;;24.80;76.30;;;;;;5009728;28;20210;-59
2021/07/19 05:47:43;;;;;;;3.20;2.90;;;24.80;76.20;;;;;;5010239;28;20302;-59
2021/07/19 05:50:09;;;;;;;3.88;3.20;;;24.80;76.10;;;;;;5010161;28;20683;-59
2021/07/19 05:52:36;;;;;;;3.33;3.03;;;24.80;76.40;;;;;;5011560;28;20221;-59
2021/07/19 05:55:02;;;;;;;3.72;3.30;;;24.80;76.50;;;;;;5009284;28;20212;-59
2021/07/19 05:57:28;;;;;;;4.03;3.13;;;24.80;76.70;;;;;;5010016;28;20840;-59
2021/07/19 05:59:56;;;;;;;5.20;2.83;;;24.80;76.70;;;;;;5009771;28;20685;-59
2021/07/19 06:02:22;;;;;;;5.13;3.15;;;24.80;76.60;;;;;;5009391;28;20624;-61
2021/07/19 06:04:49;;;;;;;3.97;2.67;;;24.80;76.70;;;;;;5009718;28;20521;-60
2021/07/19 06:07:15;;;;;;;3.88;3.00;;;24.80;76.80;;;;;;5008970;28;20593;-61
2021/07/19 06:09:42;;;;;;;3.75;3.35;;;24.80;76.70;;;;;;5005219;28;20238;-61
2021/07/19 06:12:08;;;;;;;3.60;3.20;;;24.80;77.00;;;;;;5009563;28;20225;-62
2021/07/19 06:14:35;;;;;;;3.42;3.13;;;24.80;76.80;;;;;;5009434;28;22466;-59
2021/07/19 06:17:01;;;;;;;4.78;2.95;;;24.90;77.10;;;;;;5007202;28;20203;-63
2021/07/19 06:19:28;;;;;;;3.80;3.00;;;24.80;77.60;;;;;;5009084;28;20203;-65
2021/07/19 06:21:54;;;;;;;3.75;3.30;;;24.90;77.10;;;;;;5011562;28;20227;-63
2021/07/19 06:24:21;;;;;;;5.38;4.18;;;24.90;77.00;;;;;;5010665;28;20699;-60
2021/07/19 06:26:47;;;;;;;6.75;6.00;;;24.80;76.60;;;;;;5009242;28;20671;-60
2021/07/19 06:29:13;;;;;;;9.15;5.68;;;24.30;74.50;;;;;;5009098;28;20542;-60
2021/07/19 06:31:40;;;;;;;7.25;5.93;;;24.20;76.50;;;;;;5008009;28;20600;-60
2021/07/19 06:34:08;;;;;;;6.90;5.00;;;23.60;75.10;;;;;;5009551;28;20207;-57
2021/07/19 06:36:34;;;;;;;5.75;5.00;;;23.80;77.00;;;;;;5009786;28;20199;-58
2021/07/19 06:39:01;;;;;;;5.82;4.65;;;24.00;76.40;;;;;;5009040;28;20294;-56
2021/07/19 06:41:27;;;;;;;5.40;4.70;;;24.30;76.30;;;;;;5005854;28;20745;-57
2021/07/19 06:43:53;;;;;;;5.38;4.88;;;24.30;75.80;;;;;;5013309;28;20313;-56
2021/07/19 06:46:20;;;;;;;5.25;4.85;;;24.40;75.60;;;;;;5014602;28;20266;-57
2021/07/19 06:48:46;;;;;;;6.45;4.85;;;24.50;75.40;;;;;;5013622;28;20211;-57
2021/07/19 06:51:13;;;;;;;6.35;5.03;;;24.60;75.40;;;;;;5013067;28;20254;-58
2021/07/19 06:53:39;;;;;;;6.65;4.95;;;24.60;75.40;;;;;;5012885;28;20207;-57
2021/07/19 06:56:07;;;;;;;5.15;4.53;;;24.60;75.00;;;;;;5012031;28;20203;-58
2021/07/19 06:58:33;;;;;;;5.53;4.45;;;24.60;75.00;;;;;;5013703;28;20207;-56
2021/07/19 07:00:59;;;;;;;5.95;4.65;;;24.70;74.90;;;;;;5013466;28;20234;-56
2021/07/19 07:03:26;;;;;;;5.38;4.70;;;24.70;74.80;;;;;;5013125;28;20237;-58
2021/07/19 07:05:52;;;;;;;5.15;4.65;;;24.70;75.70;;;;;;5014123;28;20221;-57
2021/07/19 07:08:19;;;;;;;5.22;4.30;;;24.70;75.10;;;;;;5012765;28;20722;-58
2021/07/19 07:10:45;;;;;;;8.80;4.47;;;24.70;75.10;;;;;;5005751;28;20314;-59
2021/07/19 07:13:12;;;;;;;4.65;4.25;;;24.70;75.50;;;;;;5012780;28;20572;-59
2021/07/19 07:15:38;;;;;;;5.82;4.00;;;24.70;75.40;;;;;;5012649;28;20699;-58
2021/07/19 07:18:05;;;;;;;4.78;3.88;;;24.70;75.30;;;;;;5012034;28;20681;-50
2021/07/19 07:20:31;;;;;;;4.65;4.13;;;24.70;75.20;;;;;;5012088;28;20219;-53
2021/07/19 07:22:57;;;;;;;7.93;3.95;;;24.70;76.00;;;;;;5012219;28;20640;-55
2021/07/19 07:25:24;;;;;;;4.78;4.38;;;24.70;75.60;;;;;;5012701;28;20230;-60
2021/07/19 07:27:50;;;;;;;5.00;3.97;;;24.80;75.40;;;;;;5011295;28;20211;-60
2021/07/19 07:30:17;;;;;;;7.13;5.30;;;24.80;75.60;;;;;;5011437;28;20227;-60
2021/07/19 07:32:43;;;;;;;6.70;4.65;;;24.80;75.80;;;;;;5014026;28;20214;-58
2021/07/19 07:35:10;;;;;;;5.90;4.70;;;24.80;76.10;;;;;;5012928;28;20218;-53
2021/07/19 07:37:36;;;;;;;6.97;4.05;;;24.80;76.30;;;;;;5010193;28;20205;-52
2021/07/19 07:40:03;;;;;;;3.55;3.00;;;24.80;75.90;;;;;;5010442;28;20227;-55
2021/07/19 07:42:29;;;;;;;4.15;3.80;;;24.90;76.10;;;;;;5011918;28;20203;-62
2021/07/19 07:44:56;;;;;;;6.30;3.30;;;24.90;76.30;;;;;;5011270;28;20250;-65
2021/07/19 07:47:22;;;;;;;3.53;3.20;;;24.90;76.50;;;;;;5009235;28;20206;-62
2021/07/19 07:49:49;;;;;;;5.40;3.85;;;24.90;76.70;;;;;;5004129;28;20223;-67
2021/07/19 07:52:16;;;;;;;6.15;3.85;;;24.90;77.10;;;;;;5007306;28;20208;-59
2021/07/19 07:54:42;;;;;;;4.68;4.20;;;24.90;77.40;;;;;;5004962;28;20199;-61
2021/07/19 07:57:09;;;;;;;5.20;3.55;;;24.90;77.10;;;;;;5013527;28;20660;-61
2021/07/19 07:59:36;;;;;;;5.18;3.60;;;24.90;77.30;;;;;;5011023;28;20208;-62
2021/07/19 08:02:02;;;;;;;7.18;4.60;;;24.90;77.00;;;;;;5011990;28;20196;-61
2021/07/19 08:04:29;;;;;;;5.63;3.97;;;24.90;77.50;;;;;;5013799;28;20226;-61
2021/07/19 08:06:56;;;;;;;3.78;3.40;;;24.90;77.20;;;;;;5013199;28;20203;-61
2021/07/19 08:09:22;;;;;;;4.82;3.47;;;24.90;76.80;;;;;;5009387;28;20200;-61
2021/07/19 08:11:48;;;;;;;5.80;3.40;;;24.90;76.90;;;;;;5013532;28;20294;-61
2021/07/19 08:14:15;;;;;;;4.15;3.75;;;24.90;76.70;;;;;;5013628;28;20203;-61
2021/07/19 08:16:41;;;;;;;3.70;3.40;;;24.90;76.60;;;;;;5013778;28;20537;-61
2021/07/19 08:19:08;;;;;;;3.58;3.20;;;24.90;76.50;;;;;;5012906;28;20209;-61
2021/07/19 08:21:35;;;;;;;3.67;3.20;;;24.90;76.60;;;;;;5013343;28;20225;-61
2021/07/19 08:24:01;;;;;;;4.43;3.65;;;24.90;76.50;;;;;;5013229;28;20321;-61
2021/07/19 08:26:27;;;;;;;4.50;3.80;;;24.90;76.30;;;;;;5013993;28;20228;-60
2021/07/19 08:28:55;;;;;;;3.58;3.28;;;24.90;76.10;;;;;;5010904;28;20262;-60
2021/07/19 08:31:22;;;;;;;4.28;3.20;;;24.90;76.10;;;;;;5012829;28;20688;-61
2021/07/19 08:33:48;;;;;;;5.03;4.38;;;24.90;76.10;;;;;;5010307;28;20213;-63
2021/07/19 08:36:15;;;;;;;4.28;3.67;;;24.90;76.40;;;;;;5007640;28;20203;-61
2021/07/19 08:38:41;;;;;;;4.82;3.47;;;24.90;76.60;;;;;;5003697;28;20212;-59
2021/07/19 08:41:07;;;;;;;4.10;3.35;;;25.00;76.60;;;;;;5005346;28;20219;-60
2021/07/19 08:43:34;;;;;;;3.65;3.35;;;24.90;76.20;;;;;;5012985;28;20707;-61
2021/07/19 08:46:00;;;;;;;4.93;3.65;;;24.90;76.10;;;;;;5011885;28;20317;-61
2021/07/19 08:48:27;;;;;;;4.40;3.40;;;24.90;76.40;;;;;;5011582;28;20282;-60
2021/07/19 08:50:53;;;;;;;3.45;3.15;;;24.90;76.30;;;;;;5012470;28;20223;-60
2021/07/19 08:53:20;;;;;;;3.97;3.55;;;24.90;76.20;;;;;;5013102;28;20299;-60
2021/07/19 08:55:49;;;;;;;4.47;3.10;;;25.00;76.20;;;;;;5013138;28;20207;-61
2021/07/19 08:58:16;;;;;;;3.33;3.03;;;24.90;76.10;;;;;;5012820;28;20199;-61
2021/07/19 09:00:42;;;;;;;3.83;3.53;;;24.90;76.00;;;;;;5010206;28;20223;-59
2021/07/19 09:03:09;;;;;;;3.28;2.97;;;24.90;76.00;;;;;;5006328;28;20200;-59
2021/07/19 09:05:35;;;;;;;3.75;3.35;;;24.90;75.80;;;;;;5011705;28;20231;-60
2021/07/19 09:08:02;;;;;;;3.67;3.35;;;24.90;77.10;;;;;;5006460;28;20569;-58
2021/07/19 09:10:28;;;;;;;4.75;4.03;;;24.90;77.50;;;;;;5010218;28;20593;-57
2021/07/19 09:12:58;;;;;;;3.42;3.13;;;24.90;77.60;;;;;;5000299;28;20580;-57
2021/07/19 09:15:24;;;;;;;3.97;3.67;;;24.90;77.40;;;;;;5010539;28;20225;-57
2021/07/19 09:17:51;;;;;;;4.18;3.65;;;24.90;77.00;;;;;;5011954;28;20210;-58
2021/07/19 09:20:17;;;;;;;3.40;3.10;;;24.90;77.00;;;;;;5012598;28;20219;-57
2021/07/19 09:22:44;;;;;;;3.50;2.90;;;24.90;76.80;;;;;;5012254;28;20208;-58
2021/07/19 09:25:10;;;;;;;4.85;3.50;;;24.90;76.60;;;;;;5010580;28;20227;-58
2021/07/19 09:27:37;;;;;;;3.67;3.38;;;25.00;76.60;;;;;;5010402;28;20202;-60
2021/07/19 09:30:03;;;;;;;5.32;4.82;;;25.00;76.40;;;;;;5005775;28;20233;-71
2021/07/19 09:32:30;;;;;;;7.97;5.97;;;24.90;77.20;;;;;;5011031;28;20234;-61
2021/07/19 09:34:56;;;;;;;16.27;5.90;;;24.80;74.10;;;;;;5013260;28;20205;-61
2021/07/19 09:37:22;;;;;;;8.50;5.70;;;24.40;74.40;;;;;;5011897;28;20290;-59
2021/07/19 09:39:50;;;;;;;5.53;4.75;;;24.30;75.90;;;;;;5009109;28;20222;-58
2021/07/19 09:42:16;;;;;;;5.68;4.68;;;24.50;75.90;;;;;;5005719;28;20203;-60
2021/07/19 09:44:43;;;;;;;6.07;4.82;;;24.60;75.60;;;;;;5009975;28;20225;-59
2021/07/19 09:47:11;;;;;;;4.40;3.97;;;24.70;75.50;;;;;;5010292;28;20203;-56
2021/07/19 09:49:38;;;;;;;5.07;4.55;;;24.70;75.30;;;;;;5010199;28;20722;-51
2021/07/19 09:52:05;;;;;;;3.75;3.45;;;24.80;75.30;;;;;;5005111;28;20218;-54
2021/07/19 09:54:31;;;;;;;5.28;4.15;;;24.80;75.30;;;;;;5010028;28;20285;-58
2021/07/19 09:56:58;;;;;;;4.15;3.60;;;24.90;75.40;;;;;;5009700;28;20200;-58
2021/07/19 09:59:25;;;;;;;4.10;3.70;;;24.90;75.40;;;;;;5010690;28;20231;-53
2021/07/19 10:01:51;;;;;;;4.70;4.30;;;24.90;75.30;;;;;;5009717;28;20738;-57
2021/07/19 10:04:18;;;;;;;4.15;3.70;;;24.90;75.10;;;;;;5010815;28;20719;-46
2021/07/19 10:06:44;;;;;;;4.88;4.47;;;24.90;75.50;;;;;;5009984;28;20206;-52
2021/07/19 10:09:11;;;;;;;4.95;4.05;;;24.90;75.30;;;;;;5009690;28;20219;-50
2021/07/19 10:11:39;;;;;;;5.93;4.40;;;24.90;75.20;;;;;;5011332;28;20207;-50
2021/07/19 10:14:06;;;;;;;5.15;4.25;;;24.90;75.00;;;;;;5010786;28;20668;-52
2021/07/19 10:16:32;;;;;;;5.00;4.03;;;24.90;74.90;;;;;;5007875;28;20711;-52
2021/07/19 10:18:58;;;;;;;4.72;4.18;;;24.90;74.80;;;;;;5010480;28;20346;-49
2021/07/19 10:21:29;;;;;;;4.10;3.72;;;24.90;74.90;;;;;;5009047;28;20265;-54
2021/07/19 10:23:55;;;;;;;5.80;4.18;;;24.90;74.60;;;;;;5011138;28;20660;-48
2021/07/19 10:26:22;;;;;;;4.38;3.97;;;24.90;74.50;;;;;;5009423;28;20605;-55
2021/07/19 10:28:48;;;;;;;4.13;3.80;;;25.00;74.90;;;;;;5007813;28;20722;-54
2021/07/19 10:31:14;;;;;;;4.20;3.80;;;25.00;75.10;;;;;;5008969;28;20211;-53
2021/07/19 10:33:41;;;;;;;4.32;3.92;;;25.00;75.20;;;;;;5004854;28;20677;-54
2021/07/19 10:36:07;;;;;;;4.85;3.88;;;25.00;75.70;;;;;;5003366;28;20207;-53
2021/07/19 10:38:34;;;;;;;4.10;3.70;;;25.00;75.70;;;;;;5009486;28;20223;-55
2021/07/19 10:41:00;;;;;;;4.05;3.67;;;25.00;75.80;;;;;;4995635;28;20202;-55
2021/07/19 10:43:29;;;;;;;5.68;3.78;;;25.00;75.70;;;;;;5010549;28;20217;-56
2021/07/19 10:45:57;;;;;;;4.28;3.88;;;25.00;75.60;;;;;;5009952;28;20341;-50
2021/07/19 10:48:24;;;;;;;4.03;3.53;;;25.00;75.80;;;;;;5009853;28;20948;-54
2021/07/19 10:50:50;;;;;;;4.47;3.75;;;25.00;75.60;;;;;;5007304;28;20294;-51
2021/07/19 10:53:17;;;;;;;4.00;3.60;;;25.00;75.70;;;;;;5009786;28;20577;-56
2021/07/19 10:55:43;;;;;;;4.38;3.85;;;25.00;75.60;;;;;;5009296;28;20209;-52
2021/07/19 10:58:10;;;;;;;4.10;3.70;;;25.00;75.60;;;;;;5001952;28;20223;-54
2021/07/19 11:00:37;;;;;;;5.05;3.97;;;25.00;75.60;;;;;;5008760;28;20207;-52
2021/07/19 11:03:03;;;;;;;4.75;4.07;;;25.00;75.60;;;;;;5009912;28;20207;-55
2021/07/19 11:05:29;;;;;;;4.20;3.70;;;25.10;75.60;;;;;;5009895;28;20306;-52
2021/07/19 11:07:56;;;;;;;4.47;3.78;;;25.10;75.50;;;;;;5010313;28;20207;-54
2021/07/19 11:10:22;;;;;;;4.10;3.70;;;25.10;75.50;;;;;;5006161;28;20203;-53
2021/07/19 11:12:49;;;;;;;4.47;4.00;;;25.10;75.60;;;;;;5011268;28;20205;-54
2021/07/19 11:15:15;;;;;;;5.43;4.05;;;25.10;75.50;;;;;;5010203;28;20233;-51
2021/07/19 11:17:42;;;;;;;8.80;4.70;;;25.10;75.50;;;;;;5009422;28;20226;-53
2021/07/19 11:20:08;;;;;;;7.97;4.30;;;25.10;75.60;;;;;;5009582;28;20677;-53
2021/07/19 11:22:35;;;;;;;6.65;4.38;;;25.10;75.50;;;;;;5009329;28;20238;-56
2021/07/19 11:25:01;;;;;;;5.63;4.50;;;25.00;75.20;;;;;;5010643;28;20233;-51
2021/07/19 11:27:28;;;;;;;6.68;4.40;;;25.10;75.10;;;;;;5005329;28;20199;-54
2021/07/19 11:29:54;;;;;;;5.05;3.88;;;25.10;75.30;;;;;;5013405;28;20221;-50
2021/07/19 11:32:21;;;;;;;5.85;4.15;;;25.10;75.40;;;;;;5010701;28;20196;-55
2021/07/19 11:34:47;;;;;;;4.72;3.97;;;25.10;75.50;;;;;;5007770;28;20227;-55
2021/07/19 11:37:14;;;;;;;5.45;4.10;;;25.10;75.70;;;;;;5006194;28;20415;-51
2021/07/19 11:39:40;;;;;;;4.88;3.80;;;25.10;75.60;;;;;;5011397;28;20313;-52
2021/07/19 11:42:07;;;;;;;5.43;3.70;;;25.10;75.50;;;;;;5014088;28;20210;-53
2021/07/19 11:44:34;;;;;;;5.85;4.07;;;25.10;75.50;;;;;;5012410;28;20203;-53
2021/07/19 11:47:03;;;;;;;5.97;4.22;;;25.10;75.50;;;;;;5012938;28;20305;-56
2021/07/19 11:49:30;;;;;;;6.18;3.90;;;25.10;75.90;;;;;;5011728;28;20238;-54
2021/07/19 11:51:56;;;;;;;6.07;4.10;;;25.10;75.70;;;;;;5010800;28;20199;-54
2021/07/19 11:54:23;;;;;;;4.80;3.92;;;25.10;75.60;;;;;;5010748;28;20203;-53
2021/07/19 11:56:49;;;;;;;6.15;4.18;;;25.10;75.70;;;;;;5013763;28;20206;-55
2021/07/19 11:59:16;;;;;;;5.68;3.83;;;25.10;75.70;;;;;;5013359;28;20552;-53
2021/07/19 12:01:42;;;;;;;4.82;4.20;;;25.10;75.80;;;;;;5012330;28;20736;-58
2021/07/19 12:04:09;;;;;;;5.07;3.80;;;25.10;75.60;;;;;;5013721;28;20207;-53
2021/07/19 12:06:35;;;;;;;3.95;3.25;;;25.10;75.50;;;;;;5012416;28;20717;-49
2021/07/19 12:09:02;;;;;;;8.13;4.20;;;25.10;75.50;;;;;;5007408;28;20231;-53
2021/07/19 12:11:28;;;;;;;6.70;3.72;;;25.10;76.00;;;;;;5013001;28;20656;-53
2021/07/19 12:13:55;;;;;;;4.65;3.50;;;25.10;75.80;;;;;;5019675;28;20684;-53
2021/07/19 12:16:21;;;;;;;6.38;4.07;;;25.10;75.50;;;;;;5012220;28;20652;-54
2021/07/19 12:18:48;;;;;;;4.22;3.85;;;25.10;75.60;;;;;;5012426;28;20232;-55
2021/07/19 12:21:15;;;;;;;4.85;3.80;;;25.10;75.60;;;;;;5007888;28;20212;-54
2021/07/19 12:23:41;;;;;;;4.40;3.45;;;25.10;75.60;;;;;;5007527;28;20203;-53
2021/07/19 12:26:08;;;;;;;5.60;3.83;;;25.10;75.70;;;;;;5005830;28;20227;-55
2021/07/19 12:28:34;;;;;;;3.88;3.40;;;25.10;75.50;;;;;;5010091;28;20237;-56
2021/07/19 12:31:01;;;;;;;4.50;3.65;;;25.10;75.40;;;;;;5012197;28;20195;-54
2021/07/19 12:33:27;;;;;;;5.07;3.78;;;25.10;75.40;;;;;;5011693;28;20207;-53
2021/07/19 12:35:54;;;;;;;5.32;3.60;;;25.10;75.90;;;;;;5011900;28;20199;-52
2021/07/19 12:38:20;;;;;;;3.92;3.45;;;25.10;75.80;;;;;;5012077;28;20230;-47
2021/07/19 12:40:46;;;;;;;7.22;3.70;;;25.10;75.60;;;;;;5011485;28;20290;-50
2021/07/19 12:43:13;;;;;;;4.68;3.50;;;25.10;75.50;;;;;;5012122;28;20207;-47